createdAt,value
2018-05-06T00:02:13.529Z,45.57
2018-05-06T00:04:42.849Z,37.47
2018-05-06T00:07:11.939Z,41.10
2018-05-06T00:09:41.092Z,37.87
2018-05-06T00:12:10.843Z,36.40
2018-05-06T00:14:39.930Z,47.60
2018-05-06T00:17:09.204Z,48.07
2018-05-06T00:19:38.484Z,45.83
2018-05-06T00:22:07.583Z,51.93
2018-05-06T00:24:36.693Z,52.60
2018-05-06T00:27:06.003Z,44.17
2018-05-06T00:29:35.903Z,55.73
2018-05-06T00:32:05.532Z,47.73
2018-05-06T00:34:35.561Z,56.33
2018-05-06T00:37:05.844Z,55.30
2018-05-06T00:39:34.997Z,55.53
2018-05-06T00:42:04.115Z,56.23
2018-05-06T00:44:33.252Z,57.17
2018-05-06T00:47:02.332Z,61.33
2018-05-06T00:49:32.321Z,56.20
2018-05-06T00:52:01.563Z,62.53
2018-05-06T00:54:42.191Z,55.30
2018-05-06T00:57:11.680Z,61.73
2018-05-06T00:59:40.923Z,60.50
2018-05-06T01:02:11.829Z,61.57
2018-05-06T01:04:41.069Z,59.60
2018-05-06T01:07:10.395Z,59.90
2018-05-06T01:09:44.917Z,65.77
2018-05-06T01:12:14.703Z,62.50
2018-05-06T01:14:44.574Z,57.80
2018-05-06T01:17:13.696Z,57.93
2018-05-06T01:19:42.858Z,57.13
2018-05-06T01:22:12.411Z,63.30
2018-05-06T01:24:42.386Z,60.70
2018-05-06T01:27:11.574Z,56.47
2018-05-06T01:29:40.756Z,59.73
2018-05-06T01:32:10.005Z,56.70
2018-05-06T01:34:39.097Z,55.57
2018-05-06T01:37:08.214Z,58.97
2018-05-06T01:39:37.377Z,63.47
2018-05-06T01:42:06.589Z,66.13
2018-05-06T01:44:35.683Z,62.83
2018-05-06T01:47:04.835Z,58.97
2018-05-06T01:49:34.007Z,64.80
2018-05-06T01:52:03.086Z,56.17
2018-05-06T01:54:32.303Z,59.70
2018-05-06T01:57:01.550Z,69.33
2018-05-06T01:59:30.698Z,69.90
2018-05-06T02:01:59.794Z,65.13
2018-05-06T02:04:28.923Z,55.70
2018-05-06T02:06:58.135Z,60.90
2018-05-06T02:09:27.281Z,55.77
2018-05-06T02:11:56.506Z,59.07
2018-05-06T02:14:26.089Z,63.30
2018-05-06T02:16:55.286Z,64.83
2018-05-06T02:19:24.471Z,69.83
2018-05-06T02:21:53.753Z,78.37
2018-05-06T02:24:22.834Z,67.80
2018-05-06T02:26:52.867Z,67.60
2018-05-06T02:29:21.940Z,72.60
2018-05-06T02:31:51.347Z,74.93
2018-05-06T02:34:21.366Z,62.60
2018-05-06T02:36:50.502Z,70.60
2018-05-06T02:39:19.745Z,65.87
2018-05-06T02:41:49.802Z,68.20
2018-05-06T02:44:18.976Z,68.87
2018-05-06T02:46:49.112Z,63.27
2018-05-06T02:49:18.228Z,59.27
2018-05-06T02:51:47.533Z,57.67
2018-05-06T02:54:16.820Z,56.80
2018-05-06T02:56:45.916Z,60.67
2018-05-06T02:59:16.048Z,54.50
2018-05-06T03:01:45.609Z,59.10
2018-05-06T03:04:14.792Z,51.17
2018-05-06T03:06:47.510Z,56.50
2018-05-06T03:09:16.742Z,56.63
2018-05-06T03:11:45.925Z,57.10
2018-05-06T03:14:15.023Z,53.13
2018-05-06T03:16:44.642Z,51.17
2018-05-06T03:19:13.890Z,59.17
2018-05-06T03:21:43.107Z,61.40
2018-05-06T03:24:12.181Z,58.00
2018-05-06T03:26:42.535Z,59.40
2018-05-06T03:29:11.707Z,67.67
2018-05-06T03:31:40.845Z,63.13
2018-05-06T03:34:10.847Z,60.90
2018-05-06T03:36:39.994Z,63.83
2018-05-06T03:39:09.127Z,66.20
2018-05-06T03:41:38.878Z,57.33
2018-05-06T03:44:08.218Z,68.40
2018-05-06T03:46:37.361Z,64.03
2018-05-06T03:49:06.746Z,60.13
2018-05-06T03:51:35.870Z,61.17
2018-05-06T03:54:05.792Z,57.90
2018-05-06T03:56:56.471Z,53.83
2018-05-06T03:59:36.845Z,60.93
2018-05-06T04:15:51.096Z,62.20
2018-05-06T04:18:20.982Z,64.27
2018-05-06T04:20:50.207Z,73.57
2018-05-06T04:23:19.447Z,67.23
2018-05-06T04:25:48.601Z,65.70
2018-05-06T04:28:17.720Z,62.67
2018-05-06T04:30:46.998Z,60.67
2018-05-06T04:33:16.884Z,68.93
2018-05-06T04:35:46.010Z,73.77
2018-05-06T04:38:15.187Z,69.43
2018-05-06T04:40:45.109Z,74.17
2018-05-06T04:43:15.016Z,60.03
2018-05-06T04:45:45.029Z,75.97
2018-05-06T04:48:14.134Z,68.80
2018-05-06T04:50:43.273Z,68.57
2018-05-06T04:53:12.360Z,67.40
2018-05-06T04:55:41.672Z,67.50
2018-05-06T04:58:10.758Z,67.03
2018-05-06T05:00:39.926Z,66.80
2018-05-06T05:03:09.003Z,72.50
2018-05-06T05:05:38.157Z,67.60
2018-05-06T05:08:07.294Z,65.20
2018-05-06T05:10:36.478Z,64.93
2018-05-06T05:13:06.401Z,62.67
2018-05-06T05:15:35.566Z,65.17
2018-05-06T05:18:04.699Z,63.93
2018-05-06T05:20:34.350Z,67.03
2018-05-06T05:23:03.399Z,67.10
2018-05-06T05:25:32.524Z,67.43
2018-05-06T05:28:01.648Z,68.53
2018-05-06T05:30:30.956Z,60.73
2018-05-06T05:33:00.078Z,64.33
2018-05-06T05:35:30.051Z,63.13
2018-05-06T05:37:59.172Z,64.13
2018-05-06T05:40:28.537Z,64.07
2018-05-06T05:42:57.708Z,64.53
2018-05-06T05:45:27.954Z,60.33
2018-05-06T05:47:57.157Z,66.80
2018-05-06T05:50:26.347Z,62.70
2018-05-06T05:52:56.160Z,64.47
2018-05-06T05:55:25.357Z,60.67
2018-05-06T05:57:54.425Z,63.70
2018-05-06T06:00:23.522Z,61.77
2018-05-06T06:02:52.785Z,64.43
2018-05-06T06:05:21.919Z,58.97
2018-05-06T06:07:51.219Z,56.73
2018-05-06T06:10:20.522Z,57.53
2018-05-06T06:12:49.645Z,67.63
2018-05-06T06:15:18.727Z,59.27
2018-05-06T06:17:47.980Z,54.97
2018-05-06T06:20:17.179Z,62.57
2018-05-06T06:22:46.569Z,64.53
2018-05-06T06:25:16.659Z,61.77
2018-05-06T06:27:45.883Z,59.53
2018-05-06T06:30:14.968Z,64.33
2018-05-06T06:32:44.854Z,62.73
2018-05-06T06:35:13.996Z,66.90
2018-05-06T06:37:43.721Z,59.83
2018-05-06T06:40:12.866Z,60.40
2018-05-06T06:42:41.974Z,67.03
2018-05-06T06:45:11.941Z,66.40
2018-05-06T06:47:41.085Z,63.10
2018-05-06T06:50:10.425Z,64.47
2018-05-06T06:52:39.502Z,64.93
2018-05-06T06:55:08.760Z,60.87
2018-05-06T06:57:37.859Z,58.30
2018-05-06T07:00:06.959Z,56.53
2018-05-06T07:02:36.081Z,57.60
2018-05-06T07:05:05.361Z,58.43
2018-05-06T07:07:35.237Z,61.50
2018-05-06T07:10:04.432Z,59.27
2018-05-06T07:12:33.623Z,61.50
2018-05-06T07:15:02.824Z,61.33
2018-05-06T07:17:31.985Z,59.63
2018-05-06T07:20:01.105Z,50.10
2018-05-06T07:22:30.908Z,57.83
2018-05-06T07:25:00.441Z,56.20
2018-05-06T07:27:29.542Z,55.80
2018-05-06T07:29:59.521Z,53.20
2018-05-06T07:32:28.749Z,53.93
2018-05-06T07:34:57.827Z,50.90
2018-05-06T07:37:26.884Z,55.93
2018-05-06T07:39:55.966Z,51.40
2018-05-06T07:42:25.178Z,50.57
2018-05-06T07:44:54.287Z,55.17
2018-05-06T07:47:23.625Z,59.67
2018-05-06T07:49:52.819Z,53.70
2018-05-06T07:52:21.986Z,57.03
2018-05-06T07:54:51.175Z,55.03
2018-05-06T07:57:20.333Z,54.70
2018-05-06T07:59:50.217Z,51.47
2018-05-06T08:02:19.389Z,54.20
2018-05-06T08:04:48.458Z,58.20
2018-05-06T08:07:17.550Z,54.87
2018-05-06T08:09:46.731Z,53.73
2018-05-06T08:12:15.846Z,52.53
2018-05-06T08:14:44.991Z,50.97
2018-05-06T08:17:14.069Z,62.23
2018-05-06T08:19:43.168Z,58.07
2018-05-06T08:22:12.315Z,53.17
2018-05-06T08:24:41.461Z,52.03
2018-05-06T08:27:11.039Z,58.37
2018-05-06T08:29:40.154Z,61.03
2018-05-06T08:32:09.306Z,58.20
2018-05-06T08:34:38.435Z,68.57
2018-05-06T08:37:07.505Z,60.07
2018-05-06T08:39:36.664Z,59.83
2018-05-06T08:42:05.778Z,56.20
2018-05-06T08:44:34.841Z,60.30
2018-05-06T08:47:03.969Z,62.57
2018-05-06T08:49:33.043Z,57.30
2018-05-06T08:52:02.153Z,58.37
2018-05-06T08:54:32.137Z,53.00
2018-05-06T08:57:01.288Z,61.60
2018-05-06T08:59:30.458Z,67.57
2018-05-06T09:01:59.577Z,58.33
2018-05-06T09:04:28.793Z,66.73
2018-05-06T09:06:57.944Z,58.53
2018-05-06T09:09:27.830Z,62.80
2018-05-06T09:11:56.995Z,56.60
2018-05-06T09:14:26.185Z,57.87
2018-05-06T09:16:55.463Z,53.10
2018-05-06T09:19:24.619Z,55.63
2018-05-06T09:21:53.786Z,52.57
2018-05-06T09:24:22.889Z,57.17
2018-05-06T09:26:52.025Z,58.03
2018-05-06T09:29:22.177Z,68.20
2018-05-06T09:31:51.289Z,71.17
2018-05-06T09:34:20.581Z,74.07
2018-05-06T09:36:49.798Z,71.53
2018-05-06T09:39:18.929Z,80.63
2018-05-06T09:41:48.004Z,75.53
2018-05-06T09:44:17.141Z,79.33
2018-05-06T09:46:46.367Z,72.83
2018-05-06T09:49:15.459Z,82.57
2018-05-06T09:51:44.777Z,68.57
2018-05-06T09:54:14.086Z,66.87
2018-05-06T09:56:43.181Z,75.70
2018-05-06T09:59:12.393Z,57.60
2018-05-06T10:01:41.506Z,64.00
2018-05-06T10:04:10.625Z,57.33
2018-05-06T10:06:39.716Z,58.40
2018-05-06T10:09:08.779Z,49.43
2018-05-06T10:11:37.972Z,52.97
2018-05-06T10:14:07.110Z,48.70
2018-05-06T10:16:36.212Z,47.20
2018-05-06T10:19:05.340Z,46.37
2018-05-06T10:21:34.448Z,48.17
2018-05-06T10:24:04.427Z,49.43
2018-05-06T10:26:33.645Z,48.33
2018-05-06T10:29:03.569Z,41.43
2018-05-06T10:31:34.270Z,43.53
2018-05-06T10:34:04.377Z,37.50
2018-05-06T10:36:33.481Z,41.93
2018-05-06T10:39:02.637Z,40.27
2018-05-06T10:41:31.785Z,31.57
2018-05-06T10:44:00.986Z,39.80
2018-05-06T10:46:30.076Z,35.33
2018-05-06T10:48:59.309Z,38.20
2018-05-06T10:51:28.532Z,36.90
2018-05-06T10:53:57.645Z,32.03
2018-05-06T10:56:27.169Z,30.27
2018-05-06T10:58:56.293Z,32.00
2018-05-06T11:01:25.343Z,33.07
2018-05-06T11:03:54.466Z,31.17
2018-05-06T11:06:23.579Z,33.93
2018-05-06T11:08:52.875Z,27.77
2018-05-06T11:11:22.050Z,28.87
2018-05-06T11:13:51.107Z,32.60
2018-05-06T11:16:20.192Z,33.60
2018-05-06T11:18:49.335Z,33.63
2018-05-06T11:21:18.480Z,36.47
2018-05-06T11:23:47.776Z,36.53
2018-05-06T11:26:17.659Z,48.27
2018-05-06T11:28:47.024Z,40.53
2018-05-06T11:31:16.097Z,46.63
2018-05-06T11:33:45.649Z,51.77
2018-05-06T11:36:14.826Z,38.63
2018-05-06T11:38:43.870Z,38.57
2018-05-06T11:41:13.388Z,41.87
2018-05-06T11:43:42.519Z,45.50
2018-05-06T11:46:11.656Z,46.20
2018-05-06T11:48:40.799Z,49.13
2018-05-06T11:51:09.955Z,47.77
2018-05-06T11:53:39.100Z,47.27
2018-05-06T11:56:08.245Z,91.87
2018-05-06T11:58:37.368Z,69.00
2018-05-06T12:01:07.261Z,46.67
2018-05-06T12:03:36.455Z,41.60
2018-05-06T12:06:05.548Z,36.57
2018-05-06T12:08:34.845Z,33.10
2018-05-06T12:11:04.684Z,32.67
2018-05-06T12:13:33.862Z,31.80
2018-05-06T12:16:03.598Z,37.67
2018-05-06T12:18:33.704Z,41.27
2018-05-06T12:21:04.538Z,47.17
2018-05-06T12:23:33.772Z,59.20
2018-05-06T12:26:02.895Z,66.13
2018-05-06T12:28:31.987Z,79.10
2018-05-06T12:31:01.091Z,79.83
2018-05-06T12:33:31.188Z,76.40
2018-05-06T12:36:01.790Z,71.23
2018-05-06T12:38:31.036Z,60.33
2018-05-06T12:41:00.139Z,54.33
2018-05-06T12:43:29.354Z,54.40
2018-05-06T12:45:58.623Z,37.03
2018-05-06T12:48:27.724Z,33.63
2018-05-06T12:50:56.923Z,25.00
2018-05-06T12:53:26.792Z,23.77
2018-05-06T12:55:56.859Z,25.07
2018-05-06T12:58:26.005Z,26.73
2018-05-06T13:00:55.802Z,29.87
2018-05-06T13:03:24.931Z,38.73
2018-05-06T13:05:54.918Z,34.00
2018-05-06T13:08:24.157Z,24.07
2018-05-06T13:10:54.362Z,27.03
2018-05-06T13:13:38.096Z,30.97
2018-05-06T13:16:07.345Z,24.83
2018-05-06T13:18:36.487Z,21.13
2018-05-06T13:21:10.675Z,33.70
2018-05-06T13:23:41.205Z,25.87
2018-05-06T13:26:10.431Z,21.00
2018-05-06T13:28:40.883Z,30.63
2018-05-06T13:31:10.007Z,29.73
2018-05-06T13:33:39.104Z,22.90
2018-05-06T13:36:08.411Z,24.13
2018-05-06T13:38:39.225Z,28.93
2018-05-06T13:41:09.311Z,24.53
2018-05-06T13:43:38.548Z,28.37
2018-05-06T13:46:07.690Z,29.73
2018-05-06T13:48:36.878Z,30.70
2018-05-06T13:51:06.039Z,29.20
2018-05-06T13:53:35.296Z,31.17
2018-05-06T13:56:04.497Z,31.00
2018-05-06T13:58:33.622Z,29.13
2018-05-06T14:01:02.812Z,27.13
2018-05-06T14:03:31.925Z,35.53
2018-05-06T14:06:01.019Z,31.50
2018-05-06T14:08:30.245Z,28.77
2018-05-06T14:10:59.490Z,31.80
2018-05-06T14:13:29.372Z,34.13
2018-05-06T14:16:01.458Z,31.40
2018-05-06T14:18:30.662Z,29.53
2018-05-06T14:21:00.597Z,33.63
2018-05-06T14:23:29.831Z,26.50
2018-05-06T14:25:59.946Z,28.30
2018-05-06T14:28:29.139Z,27.47
2018-05-06T14:30:59.928Z,32.23
2018-05-06T14:33:29.961Z,32.13
2018-05-06T14:35:59.171Z,28.17
2018-05-06T14:38:28.991Z,33.73
2018-05-06T14:40:58.849Z,31.53
2018-05-06T14:43:28.459Z,32.50
2018-05-06T14:45:57.608Z,27.10
2018-05-06T14:48:26.785Z,30.33
2018-05-06T14:50:56.785Z,26.80
2018-05-06T14:53:25.935Z,30.80
2018-05-06T14:55:55.074Z,31.83
2018-05-06T14:58:24.302Z,29.40
2018-05-06T15:00:53.395Z,36.13
2018-05-06T15:03:22.509Z,27.70
2018-05-06T15:05:51.645Z,32.70
2018-05-06T15:08:21.543Z,36.70
2018-05-06T15:10:52.344Z,25.27
2018-05-06T15:13:21.749Z,30.77
2018-05-06T15:15:50.936Z,31.17
2018-05-06T15:18:27.921Z,26.60
2018-05-06T15:20:57.057Z,30.80
2018-05-06T15:23:27.028Z,30.50
2018-05-06T15:25:56.150Z,32.43
2018-05-06T15:28:25.440Z,32.97
2018-05-06T15:30:55.469Z,30.03
2018-05-06T15:33:26.232Z,27.80
2018-05-06T15:35:55.356Z,26.37
2018-05-06T15:38:25.588Z,29.20
2018-05-06T15:40:55.713Z,38.47
2018-05-06T15:43:25.209Z,24.43
2018-05-06T15:45:54.440Z,30.00
2018-05-06T15:48:23.614Z,22.70
2018-05-06T15:50:53.607Z,24.73
2018-05-06T15:53:22.817Z,25.27
2018-05-06T15:55:52.015Z,30.13
2018-05-06T15:58:21.392Z,28.37
2018-05-06T16:00:51.433Z,30.63
2018-05-06T16:03:32.139Z,25.70
2018-05-06T16:06:01.461Z,19.93
2018-05-06T16:08:31.340Z,28.57
2018-05-06T16:11:00.494Z,23.90
2018-05-06T16:13:29.613Z,24.63
2018-05-06T16:15:59.812Z,23.53
2018-05-06T16:18:38.760Z,24.77
2018-05-06T16:21:07.857Z,27.40
2018-05-06T16:23:37.062Z,21.90
2018-05-06T16:26:06.178Z,20.97
2018-05-06T16:28:35.417Z,19.33
2018-05-06T16:31:04.594Z,19.60
2018-05-06T16:33:33.933Z,17.00
2018-05-06T16:36:04.623Z,17.77
2018-05-06T16:38:34.827Z,17.60
2018-05-06T16:41:05.843Z,22.33
2018-05-06T16:43:35.073Z,19.40
2018-05-06T16:46:05.824Z,28.80
2018-05-06T16:48:35.105Z,18.00
2018-05-06T16:51:04.501Z,12.23
2018-05-06T16:53:37.957Z,16.00
2018-05-06T16:56:07.180Z,21.63
2018-05-06T16:58:37.922Z,13.10
2018-05-06T17:01:07.179Z,13.20
2018-05-06T17:03:36.548Z,10.93
2018-05-06T17:06:06.259Z,18.40
2018-05-06T17:08:35.389Z,15.63
2018-05-06T17:11:04.564Z,12.13
2018-05-06T17:13:33.889Z,11.47
2018-05-06T17:16:03.091Z,14.37
2018-05-06T17:18:32.296Z,16.60
2018-05-06T17:21:01.409Z,21.43
2018-05-06T17:23:30.570Z,17.97
2018-05-06T17:25:59.783Z,26.47
2018-05-06T17:28:28.903Z,15.30
2018-05-06T17:30:58.072Z,15.47
2018-05-06T17:33:28.281Z,14.07
2018-05-06T17:35:57.451Z,16.63
2018-05-06T17:38:26.578Z,14.43
2018-05-06T17:40:56.639Z,13.30
2018-05-06T17:43:26.213Z,14.80
2018-05-06T17:45:56.330Z,15.23
2018-05-06T17:48:25.457Z,17.40
2018-05-06T17:50:54.581Z,18.00
2018-05-06T17:53:26.800Z,17.00
2018-05-06T17:55:56.203Z,13.90
2018-05-06T17:58:25.623Z,12.67
2018-05-06T18:00:54.884Z,14.07
2018-05-06T18:03:24.102Z,14.03
2018-05-06T18:05:53.262Z,15.77
2018-05-06T18:08:22.413Z,17.37
2018-05-06T18:10:51.523Z,17.60
2018-05-06T18:13:20.728Z,26.13
2018-05-06T18:15:50.369Z,17.90
2018-05-06T18:18:19.517Z,17.27
2018-05-06T18:20:49.408Z,15.67
2018-05-06T18:23:18.574Z,20.00
2018-05-06T18:25:47.741Z,23.13
2018-05-06T18:28:16.932Z,17.13
2018-05-06T18:30:46.054Z,18.67
2018-05-06T18:33:15.383Z,16.13
2018-05-06T18:35:46.404Z,16.83
2018-05-06T18:38:16.122Z,16.53
2018-05-06T18:40:46.106Z,20.83
2018-05-06T18:43:15.255Z,20.10
2018-05-06T18:45:44.405Z,16.03
2018-05-06T18:48:13.599Z,17.53
2018-05-06T18:50:42.772Z,18.50
2018-05-06T18:53:11.907Z,17.67
2018-05-06T18:55:41.133Z,31.50
2018-05-06T18:58:10.701Z,31.37
2018-05-06T19:00:40.601Z,25.17
2018-05-06T19:03:11.675Z,16.50
2018-05-06T19:05:41.742Z,22.93
2018-05-06T19:08:11.102Z,22.50
2018-05-06T19:10:40.225Z,23.63
2018-05-06T19:13:09.403Z,22.50
2018-05-06T19:15:38.666Z,28.13
2018-05-06T19:18:07.870Z,23.27
2018-05-06T19:20:37.857Z,22.27
2018-05-06T19:23:08.804Z,25.00
2018-05-06T19:25:38.490Z,24.53
2018-05-06T19:28:07.687Z,18.20
2018-05-06T19:30:37.534Z,17.77
2018-05-06T19:33:06.711Z,22.23
2018-05-06T19:35:35.966Z,22.97
2018-05-06T19:38:05.163Z,18.00
2018-05-06T19:40:34.324Z,21.60
2018-05-06T19:43:04.538Z,19.63
2018-05-06T19:45:33.812Z,16.53
2018-05-06T19:48:02.981Z,19.07
2018-05-06T19:50:32.164Z,21.50
2018-05-06T19:53:01.484Z,16.13
2018-05-06T19:55:30.869Z,20.27
2018-05-06T19:58:00.314Z,17.97
2018-05-06T20:00:30.237Z,19.63
2018-05-06T20:02:59.358Z,15.83
2018-05-06T20:05:28.576Z,23.40
2018-05-06T20:07:57.777Z,19.83
2018-05-06T20:10:28.031Z,27.40
2018-05-06T20:12:58.043Z,25.03
2018-05-06T20:15:27.359Z,15.33
2018-05-06T20:17:56.549Z,28.57
2018-05-06T20:20:25.706Z,16.17
2018-05-06T20:22:54.971Z,20.23
2018-05-06T20:25:24.630Z,15.37
2018-05-06T20:27:53.775Z,15.27
2018-05-06T20:30:22.948Z,19.37
2018-05-06T20:32:52.019Z,16.67
2018-05-06T20:35:21.211Z,19.00
2018-05-06T20:37:50.357Z,15.47
2018-05-06T20:40:19.494Z,18.13
2018-05-06T20:42:48.608Z,13.53
2018-05-06T20:45:17.714Z,20.60
2018-05-06T20:47:46.876Z,15.63
2018-05-06T20:50:15.981Z,15.00
2018-05-06T20:52:45.137Z,14.07
2018-05-06T20:55:14.355Z,17.17
2018-05-06T20:57:43.420Z,16.33
2018-05-06T21:00:13.302Z,18.53
2018-05-06T21:02:42.506Z,14.23
2018-05-06T21:05:11.601Z,15.40
2018-05-06T21:07:40.821Z,12.07
2018-05-06T21:10:10.035Z,18.50
2018-05-06T21:12:39.108Z,18.47
2018-05-06T21:15:08.261Z,19.47
2018-05-06T21:17:37.376Z,21.50
2018-05-06T21:20:06.699Z,17.63
2018-05-06T21:22:35.853Z,12.40
2018-05-06T21:25:05.708Z,15.27
2018-05-06T21:27:36.516Z,15.07
2018-05-06T21:30:05.724Z,13.83
2018-05-06T21:32:34.787Z,11.10
2018-05-06T21:35:03.962Z,13.73
2018-05-06T21:37:33.120Z,15.57
2018-05-06T21:40:02.254Z,16.07
2018-05-06T21:42:32.368Z,13.77
2018-05-06T21:45:01.519Z,15.83
2018-05-06T21:47:31.580Z,15.20
2018-05-06T21:50:00.787Z,25.43
2018-05-06T21:52:29.953Z,14.80
2018-05-06T21:54:59.155Z,12.53
2018-05-06T21:57:28.311Z,12.97
2018-05-06T21:59:57.564Z,15.13
2018-05-06T22:02:26.765Z,13.50
2018-05-06T22:04:55.935Z,12.23
2018-05-06T22:07:25.131Z,16.57
2018-05-06T22:09:54.262Z,16.93
2018-05-06T22:12:24.691Z,14.53
2018-05-06T22:14:53.926Z,23.63
2018-05-06T22:17:23.124Z,15.67
2018-05-06T22:19:52.217Z,16.40
2018-05-06T22:22:21.311Z,14.33
2018-05-06T22:24:50.440Z,12.40
2018-05-06T22:27:19.613Z,17.17
2018-05-06T22:29:51.608Z,16.53
2018-05-06T22:32:20.729Z,12.30
2018-05-06T22:34:49.818Z,15.50
2018-05-06T22:37:19.009Z,17.03
2018-05-06T22:39:48.182Z,16.20
2018-05-06T22:42:17.320Z,12.73
2018-05-06T22:44:46.544Z,24.37
2018-05-06T22:47:15.748Z,17.77
2018-05-06T22:49:44.887Z,17.47
2018-05-06T22:52:13.992Z,18.17
2018-05-06T22:54:43.132Z,17.93
2018-05-06T22:57:16.050Z,19.90
2018-05-06T22:59:45.158Z,17.60
2018-05-06T23:02:14.347Z,26.40
2018-05-06T23:04:43.520Z,19.67
2018-05-06T23:07:12.619Z,17.33
2018-05-06T23:09:41.721Z,15.57
2018-05-06T23:12:16.521Z,16.70
2018-05-06T23:14:48.638Z,15.97
2018-05-06T23:17:17.831Z,12.10
2018-05-06T23:19:46.924Z,14.80
2018-05-06T23:22:16.093Z,19.93
2018-05-06T23:24:45.411Z,18.57
2018-05-06T23:27:14.587Z,17.00
2018-05-06T23:29:43.652Z,17.83
2018-05-06T23:32:13.207Z,18.50
2018-05-06T23:34:42.421Z,16.60
2018-05-06T23:37:12.431Z,17.77
2018-05-06T23:39:41.573Z,20.03
2018-05-06T23:42:10.818Z,15.20
2018-05-06T23:44:40.213Z,20.63
2018-05-06T23:47:09.497Z,22.40
2018-05-06T23:49:38.671Z,24.57
2018-05-06T23:52:07.835Z,22.07
2018-05-06T23:54:36.953Z,22.87
2018-05-06T23:57:06.098Z,24.03
2018-05-06T23:59:35.286Z,19.70
